Time;durP1;ratioP1;P1;durP2;ratioP2;P2;SDS_P1;SDS_P2;PMS_P1;PMS_P2;Temp;Humidity;BMP_temperature;BMP_pressure;BME280_temperature;BME280_humidity;BME280_pressure;Samples;Min_cycle;Max_cycle;Signal;HPM_P1;HPM_P2
2021/06/13 00:01:45;;;;;;;6.68;4.53;;;;;;;;;;1902345;75;20092;-77
2021/06/13 00:04:11;;;;;;;7.18;4.82;;;;;;;;;;1902272;75;20093;-79
2021/06/13 00:06:39;;;;;;;6.40;4.70;;;;;;;;;;1902652;75;20392;-78
2021/06/13 00:09:06;;;;;;;7.30;4.93;;;;;;;;;;1909058;75;20077;-78
2021/06/13 00:11:32;;;;;;;6.72;5.22;;;;;;;;;;1908530;75;20109;-78
2021/06/13 00:13:58;;;;;;;7.10;5.18;;;;;;;;;;1907200;75;20491;-78
2021/06/13 00:16:25;;;;;;;7.28;5.10;;;;;;;;;;1908081;75;20077;-78
2021/06/13 00:18:51;;;;;;;7.25;5.15;;;;;;;;;;1908228;75;20089;-78
2021/06/13 00:21:18;;;;;;;7.55;5.22;;;;;;;;;;1908024;75;20089;-77
2021/06/13 00:23:45;;;;;;;6.43;4.95;;;;;;;;;;1902526;75;20096;-77
2021/06/13 00:26:12;;;;;;;6.05;4.55;;;;;;;;;;1908310;75;20585;-78
2021/06/13 00:28:38;;;;;;;7.22;5.00;;;;;;;;;;1908921;75;20096;-78
2021/06/13 00:31:06;;;;;;;7.10;5.15;;;;;;;;;;1901140;75;20104;-77
2021/06/13 00:33:32;;;;;;;7.55;4.55;;;;;;;;;;1905646;75;20092;-79
2021/06/13 00:35:58;;;;;;;6.50;5.22;;;;;;;;;;1908275;75;20097;-77
2021/06/13 00:38:24;;;;;;;6.75;5.10;;;;;;;;;;1908575;75;20093;-77
2021/06/13 00:40:52;;;;;;;6.78;5.05;;;;;;;;;;1907334;75;20139;-77
2021/06/13 00:43:19;;;;;;;6.93;5.05;;;;;;;;;;1903295;75;20092;-77
2021/06/13 00:45:45;;;;;;;7.05;5.18;;;;;;;;;;1907698;75;20093;-77
2021/06/13 00:48:12;;;;;;;6.55;5.10;;;;;;;;;;1907460;75;20089;-76
2021/06/13 00:50:41;;;;;;;9.02;5.93;;;;;;;;;;1907406;60;20397;-77
2021/06/13 00:53:09;;;;;;;7.30;5.87;;;;;;;;;;1904123;75;20096;-77
2021/06/13 00:55:36;;;;;;;7.80;5.35;;;;;;;;;;1901915;75;20321;-78
2021/06/13 00:58:05;;;;;;;7.20;5.28;;;;;;;;;;1907663;75;20093;-78
2021/06/13 01:00:32;;;;;;;8.88;5.78;;;;;;;;;;1907482;75;20085;-76
2021/06/13 01:02:59;;;;;;;7.28;5.35;;;;;;;;;;1907721;75;20089;-77
2021/06/13 01:05:29;;;;;;;8.00;5.30;;;;;;;;;;1907765;75;20097;-78
2021/06/13 01:08:11;;;;;;;6.82;5.10;;;;;;;;;;1907772;75;20147;-78
2021/06/13 01:11:25;;;;;;;8.25;5.60;;;;;;;;;;1907316;67;20156;-81
2021/06/13 01:14:05;;;;;;;8.05;5.63;;;;;;;;;;1901519;75;20162;-82
2021/06/13 01:16:47;;;;;;;6.77;4.93;;;;;;;;;;1901752;75;20094;-82
2021/06/13 01:19:49;;;;;;;8.63;5.78;;;;;;;;;;1901960;75;20306;-82
2021/06/13 01:26:10;;;;;;;7.15;5.40;;;;;;;;;;1902473;75;20137;-82
2021/06/13 01:28:56;;;;;;;7.78;5.90;;;;;;;;;;1898061;75;20086;-82
2021/06/13 01:31:33;;;;;;;7.68;5.82;;;;;;;;;;1902707;75;20090;-82
2021/06/13 01:34:24;;;;;;;7.07;5.60;;;;;;;;;;1902998;75;20135;-81
2021/06/13 01:36:52;;;;;;;7.90;6.32;;;;;;;;;;1907242;75;20082;-81
2021/06/13 01:39:52;;;;;;;7.07;5.60;;;;;;;;;;1908802;75;20625;-81
2021/06/13 01:42:19;;;;;;;8.63;5.70;;;;;;;;;;1902493;75;20094;-81
2021/06/13 01:44:54;;;;;;;9.15;6.50;;;;;;;;;;1902548;75;20116;-81
2021/06/13 01:47:46;;;;;;;8.52;6.38;;;;;;;;;;1902761;75;20103;-81
2021/06/13 01:50:35;;;;;;;7.40;5.55;;;;;;;;;;1902857;75;20501;-81
2021/06/13 01:53:14;;;;;;;8.98;6.53;;;;;;;;;;1903106;75;20101;-82
2021/06/13 01:55:49;;;;;;;7.63;5.93;;;;;;;;;;1903144;75;20143;-82
2021/06/13 01:58:18;;;;;;;8.02;5.68;;;;;;;;;;1902925;75;20089;-81
2021/06/13 02:00:47;;;;;;;7.55;6.00;;;;;;;;;;1903501;75;20089;-82
2021/06/13 02:03:14;;;;;;;9.00;6.28;;;;;;;;;;1909176;75;20089;-79
2021/06/13 02:05:43;;;;;;;8.45;5.80;;;;;;;;;;1909051;75;20084;-81
2021/06/13 02:08:10;;;;;;;7.95;5.90;;;;;;;;;;1909132;75;20101;-80
2021/06/13 02:10:38;;;;;;;8.75;6.22;;;;;;;;;;1908696;67;20124;-81
2021/06/13 02:13:05;;;;;;;9.98;6.32;;;;;;;;;;1903029;75;20099;-82
2021/06/13 02:15:34;;;;;;;9.35;6.65;;;;;;;;;;1902445;75;20089;-82
2021/06/13 02:18:44;;;;;;;;;;;;;;;;;;;;;
2021/06/13 02:22:03;;;;;;;8.63;6.13;;;;;;;;;;1901705;75;20100;-82
2021/06/13 02:25:02;;;;;;;8.85;6.32;;;;;;;;;;1895202;75;20100;-84
2021/06/13 02:28:25;;;;;;;8.57;6.10;;;;;;;;;;1899595;75;20148;-83
2021/06/13 02:31:54;;;;;;;8.98;5.97;;;;;;;;;;1900628;75;20104;-82
2021/06/13 02:34:46;;;;;;;7.88;5.97;;;;;;;;;;1901328;75;20082;-82
2021/06/13 02:40:25;;;;;;;7.88;5.38;;;;;;;;;;1899953;75;20085;-83
2021/06/13 02:43:09;;;;;;;8.30;6.18;;;;;;;;;;1903541;75;20105;-82
2021/06/13 02:46:12;;;;;;;9.75;8.10;;;;;;;;;;1902644;75;20130;-82
2021/06/13 02:49:01;;;;;;;8.95;6.78;;;;;;;;;;1901371;75;20097;-81
2021/06/13 02:51:33;;;;;;;7.78;6.20;;;;;;;;;;1892640;76;20094;-82
2021/06/13 02:54:02;;;;;;;9.15;6.03;;;;;;;;;;1895736;76;20153;-81
2021/06/13 02:56:34;;;;;;;11.57;6.82;;;;;;;;;;1900254;75;20096;-82
2021/06/13 02:59:10;;;;;;;11.70;6.10;;;;;;;;;;1903298;75;20272;-81
2021/06/13 03:01:42;;;;;;;9.30;6.18;;;;;;;;;;1902341;75;20093;-81
2021/06/13 03:04:10;;;;;;;9.02;6.47;;;;;;;;;;1903505;75;20089;-81
2021/06/13 03:06:38;;;;;;;9.90;6.82;;;;;;;;;;1903316;75;20090;-82
2021/06/13 03:09:05;;;;;;;8.13;6.55;;;;;;;;;;1903542;75;20097;-81
2021/06/13 03:11:31;;;;;;;8.85;6.38;;;;;;;;;;1903298;75;20085;-82
2021/06/13 03:13:59;;;;;;;8.38;6.22;;;;;;;;;;1903732;75;20116;-81
2021/06/13 03:16:27;;;;;;;8.07;5.97;;;;;;;;;;1903351;75;20094;-82
2021/06/13 03:18:53;;;;;;;9.55;6.28;;;;;;;;;;1904069;75;20093;-82
2021/06/13 03:21:20;;;;;;;11.07;6.68;;;;;;;;;;1904070;75;20090;-82
2021/06/13 03:23:48;;;;;;;10.02;6.65;;;;;;;;;;1903975;75;20089;-82
2021/06/13 03:26:15;;;;;;;8.13;6.25;;;;;;;;;;1904158;75;20093;-82
2021/06/13 03:29:31;;;;;;;9.25;6.82;;;;;;;;;;1908887;62;20085;-81
2021/06/13 03:34:55;;;;;;;10.25;6.55;;;;;;;;;;1894906;75;20102;-82
2021/06/13 03:37:23;;;;;;;10.55;6.68;;;;;;;;;;1900127;75;20078;-83
2021/06/13 03:51:34;;;;;;;9.82;6.50;;;;;;;;;;1905133;75;20120;-82
2021/06/13 03:54:12;;;;;;;8.85;6.38;;;;;;;;;;1905849;75;20088;-80
2021/06/13 03:57:29;;;;;;;10.60;6.70;;;;;;;;;;1906266;75;20081;-81
2021/06/13 04:04:11;;;;;;;9.32;6.47;;;;;;;;;;1905885;75;20507;-81
2021/06/13 04:07:08;;;;;;;8.35;6.53;;;;;;;;;;1905970;75;20089;-82
2021/06/13 04:12:40;;;;;;;10.68;6.95;;;;;;;;;;1905289;75;20087;-81
2021/06/13 04:15:11;;;;;;;10.88;6.85;;;;;;;;;;1906612;75;20089;-81
2021/06/13 04:17:48;;;;;;;10.32;6.90;;;;;;;;;;1906525;75;20499;-81
2021/06/13 04:20:23;;;;;;;9.98;6.90;;;;;;;;;;1912250;75;20096;-81
2021/06/13 04:22:51;;;;;;;10.73;6.78;;;;;;;;;;1909539;75;20092;-80
2021/06/13 04:25:35;;;;;;;10.63;6.80;;;;;;;;;;1906584;75;20093;-81
2021/06/13 04:28:29;;;;;;;7.85;6.30;;;;;;;;;;1906315;75;20502;-81
2021/06/13 04:35:19;;;;;;;8.40;6.63;;;;;;;;;;1901355;75;20122;-80
2021/06/13 04:37:55;;;;;;;10.00;6.40;;;;;;;;;;1890484;76;20091;-80
2021/06/13 04:40:28;;;;;;;9.13;6.20;;;;;;;;;;1905687;75;20150;-81
2021/06/13 04:43:09;;;;;;;9.40;6.07;;;;;;;;;;1905665;75;20111;-82
2021/06/13 04:59:37;;;;;;;8.30;5.78;;;;;;;;;;1887510;76;20151;-81
2021/06/13 05:05:19;;;;;;;8.98;5.38;;;;;;;;;;1880114;76;20097;-82
2021/06/13 05:07:52;;;;;;;8.88;5.53;;;;;;;;;;1888109;76;20450;-81
2021/06/13 05:10:48;;;;;;;7.95;5.10;;;;;;;;;;1887853;76;20088;-81
2021/06/13 05:17:01;;;;;;;7.75;4.85;;;;;;;;;;1903007;75;20610;-83
2021/06/13 05:19:38;;;;;;;7.22;5.10;;;;;;;;;;1905172;75;20487;-83
2021/06/13 05:32:09;;;;;;;9.52;5.22;;;;;;;;;;1891117;75;20127;-82
2021/06/13 05:34:36;;;;;;;9.63;4.70;;;;;;;;;;1905258;75;20085;-82
2021/06/13 05:37:08;;;;;;;7.63;5.03;;;;;;;;;;1906177;75;20104;-84
2021/06/13 05:43:19;;;;;;;7.82;5.03;;;;;;;;;;1894046;76;20162;-80
2021/06/13 05:47:04;;;;;;;8.95;5.47;;;;;;;;;;1896317;76;20137;-80
2021/06/13 05:57:22;;;;;;;;;;;;;;;;;;;;;
2021/06/13 06:13:05;;;;;;;;;;;;;;;;;;;;;
2021/06/13 06:19:26;;;;;;;7.53;4.28;;;;;;;;;;1905448;75;20085;-82
2021/06/13 06:25:30;;;;;;;8.25;4.45;;;;;;;;;;1905234;75;20081;-81
2021/06/13 06:28:06;;;;;;;7.25;3.58;;;;;;;;;;1903968;75;20099;-82
2021/06/13 06:30:39;;;;;;;6.65;4.50;;;;;;;;;;1906502;75;20103;-82
2021/06/13 06:33:12;;;;;;;7.22;3.97;;;;;;;;;;1906522;75;20141;-81
2021/06/13 06:35:41;;;;;;;8.35;3.90;;;;;;;;;;1905366;75;20089;-80
2021/06/13 06:38:11;;;;;;;5.82;3.78;;;;;;;;;;1905943;75;20123;-82
2021/06/13 06:40:42;;;;;;;8.50;4.13;;;;;;;;;;1906203;75;20128;-80
2021/06/13 06:43:17;;;;;;;5.93;3.80;;;;;;;;;;1906899;75;20096;-81
2021/06/13 06:49:27;;;;;;;8.02;4.35;;;;;;;;;;1909066;75;20089;-84
2021/06/13 06:52:24;;;;;;;7.57;4.28;;;;;;;;;;1911995;75;20101;-83
2021/06/13 06:55:16;;;;;;;5.82;3.95;;;;;;;;;;1910852;75;20093;-82
2021/06/13 06:57:58;;;;;;;6.57;4.13;;;;;;;;;;1906942;75;20103;-81
2021/06/13 07:00:43;;;;;;;7.10;4.32;;;;;;;;;;1909593;75;20081;-83
2021/06/13 07:03:14;;;;;;;6.18;4.10;;;;;;;;;;1910138;75;20096;-82
2021/06/13 07:05:50;;;;;;;5.97;4.13;;;;;;;;;;1905956;75;20085;-82
2021/06/13 07:08:34;;;;;;;8.88;4.93;;;;;;;;;;1906099;75;20092;-80
2021/06/13 07:13:29;;;;;;;7.25;4.60;;;;;;;;;;1906561;75;20147;-78
2021/06/13 07:15:57;;;;;;;7.47;4.80;;;;;;;;;;1906555;75;20368;-78
2021/06/13 07:18:24;;;;;;;7.70;4.70;;;;;;;;;;1906802;75;20147;-76
2021/06/13 07:20:51;;;;;;;6.15;4.65;;;;;;;;;;1906593;75;20089;-78
2021/06/13 07:23:17;;;;;;;8.23;4.75;;;;;;;;;;1905619;75;20081;-77
2021/06/13 07:25:44;;;;;;;7.60;4.80;;;;;;;;;;1906767;75;20100;-78
2021/06/13 07:28:11;;;;;;;6.88;4.43;;;;;;;;;;1906275;75;20092;-78
2021/06/13 07:30:38;;;;;;;8.48;5.00;;;;;;;;;;1906418;75;20093;-78
2021/06/13 07:33:06;;;;;;;7.85;5.03;;;;;;;;;;1906255;75;20085;-79
2021/06/13 07:35:33;;;;;;;8.38;5.05;;;;;;;;;;1906705;75;20147;-79
2021/06/13 07:38:01;;;;;;;8.88;5.60;;;;;;;;;;1906335;75;20081;-78
2021/06/13 07:40:29;;;;;;;8.95;5.05;;;;;;;;;;1906260;75;20093;-78
2021/06/13 07:42:55;;;;;;;8.13;5.30;;;;;;;;;;1906792;75;20089;-78
2021/06/13 07:45:23;;;;;;;8.60;5.10;;;;;;;;;;1906522;75;20081;-78
2021/06/13 07:47:50;;;;;;;8.38;5.20;;;;;;;;;;1906366;75;20104;-78
2021/06/13 07:50:20;;;;;;;9.32;5.18;;;;;;;;;;1906098;75;20525;-79
2021/06/13 07:52:48;;;;;;;7.75;5.70;;;;;;;;;;1906181;75;20089;-78
2021/06/13 07:55:18;;;;;;;7.80;4.93;;;;;;;;;;1906129;75;20719;-77
2021/06/13 07:57:45;;;;;;;8.95;5.15;;;;;;;;;;1906365;75;20519;-78
2021/06/13 08:00:14;;;;;;;7.72;5.00;;;;;;;;;;1906488;75;20395;-77
2021/06/13 08:02:41;;;;;;;7.95;4.70;;;;;;;;;;1906601;75;20089;-78
2021/06/13 08:05:11;;;;;;;16.67;13.10;;;;;;;;;;1906665;75;20093;-78
2021/06/13 08:07:39;;;;;;;7.80;5.32;;;;;;;;;;1903584;75;20090;-78
2021/06/13 08:10:08;;;;;;;7.35;5.18;;;;;;;;;;1909689;75;20123;-76
2021/06/13 08:12:37;;;;;;;13.55;8.75;;;;;;;;;;1910945;75;20506;-78
2021/06/13 08:15:05;;;;;;;7.60;5.50;;;;;;;;;;1908306;75;20093;-78
2021/06/13 08:17:32;;;;;;;8.00;4.50;;;;;;;;;;1908285;67;20100;-78
2021/06/13 08:19:59;;;;;;;6.40;4.10;;;;;;;;;;1907138;75;20085;-79
2021/06/13 08:22:26;;;;;;;6.85;4.50;;;;;;;;;;1906416;75;20120;-77
2021/06/13 08:24:55;;;;;;;6.75;4.47;;;;;;;;;;1907142;75;20444;-80
2021/06/13 08:27:22;;;;;;;7.90;5.00;;;;;;;;;;1907056;75;20112;-79
2021/06/13 08:29:49;;;;;;;8.73;4.88;;;;;;;;;;1906886;75;20093;-78
2021/06/13 08:32:15;;;;;;;9.82;5.22;;;;;;;;;;1906535;75;20089;-78
2021/06/13 08:34:42;;;;;;;7.18;4.68;;;;;;;;;;1906728;75;20124;-77
2021/06/13 08:37:12;;;;;;;9.27;5.00;;;;;;;;;;1907082;75;20089;-79
2021/06/13 08:39:38;;;;;;;11.77;5.37;;;;;;;;;;1907250;75;20085;-77
2021/06/13 08:42:08;;;;;;;7.63;5.40;;;;;;;;;;1906773;75;20089;-77
2021/06/13 08:44:39;;;;;;;6.90;4.33;;;;;;;;;;1906509;75;20096;-78
2021/06/13 08:47:11;;;;;;;7.43;4.70;;;;;;;;;;1906586;75;20077;-79
2021/06/13 08:49:38;;;;;;;7.75;4.70;;;;;;;;;;1906507;75;20144;-78
2021/06/13 08:52:05;;;;;;;6.53;4.60;;;;;;;;;;1907020;75;20101;-79
2021/06/13 08:54:32;;;;;;;5.80;4.10;;;;;;;;;;1907512;75;20116;-80
2021/06/13 08:56:59;;;;;;;7.15;3.97;;;;;;;;;;1906452;75;20100;-78
2021/06/13 08:59:27;;;;;;;6.45;4.38;;;;;;;;;;1906413;75;20081;-78
2021/06/13 09:01:54;;;;;;;6.32;3.55;;;;;;;;;;1905710;75;20089;-77
2021/06/13 09:04:20;;;;;;;6.55;3.50;;;;;;;;;;1906360;75;20089;-78
2021/06/13 09:06:47;;;;;;;6.28;3.92;;;;;;;;;;1906546;75;20147;-78
2021/06/13 09:09:18;;;;;;;6.18;3.78;;;;;;;;;;1906383;75;20092;-79
2021/06/13 09:11:58;;;;;;;7.50;4.05;;;;;;;;;;1906329;75;20395;-78
2021/06/13 09:14:26;;;;;;;10.05;5.68;;;;;;;;;;1906276;75;20096;-79
2021/06/13 09:16:55;;;;;;;5.15;3.53;;;;;;;;;;1906157;75;20099;-79
2021/06/13 09:19:22;;;;;;;6.82;3.50;;;;;;;;;;1906094;75;20089;-79
2021/06/13 09:21:49;;;;;;;5.05;3.10;;;;;;;;;;1905574;75;20120;-77
2021/06/13 09:24:20;;;;;;;5.72;3.97;;;;;;;;;;1906130;75;20097;-79
2021/06/13 09:26:48;;;;;;;4.85;3.00;;;;;;;;;;1906380;75;20086;-79
2021/06/13 09:29:15;;;;;;;6.70;3.33;;;;;;;;;;1906154;75;20207;-79
2021/06/13 09:31:42;;;;;;;4.20;2.63;;;;;;;;;;1905885;75;20093;-77
2021/06/13 09:34:16;;;;;;;6.65;3.10;;;;;;;;;;1905943;75;20446;-78
2021/06/13 09:36:44;;;;;;;6.45;3.25;;;;;;;;;;1906574;75;20089;-79
2021/06/13 09:39:12;;;;;;;5.53;3.60;;;;;;;;;;1905498;75;20187;-79
2021/06/13 09:41:41;;;;;;;5.60;3.38;;;;;;;;;;1906868;75;20449;-77
2021/06/13 09:44:09;;;;;;;5.55;3.55;;;;;;;;;;1905854;75;20085;-77
2021/06/13 09:46:38;;;;;;;6.00;3.90;;;;;;;;;;1906960;75;20092;-78
2021/06/13 09:49:07;;;;;;;5.57;3.60;;;;;;;;;;1906133;75;20097;-77
2021/06/13 09:51:39;;;;;;;9.27;6.68;;;;;;;;;;1905600;75;20100;-77
2021/06/13 09:54:08;;;;;;;8.02;5.93;;;;;;;;;;1906221;75;20120;-77
2021/06/13 09:56:36;;;;;;;5.85;4.00;;;;;;;;;;1906526;75;20140;-77
2021/06/13 09:59:08;;;;;;;7.43;3.55;;;;;;;;;;1906525;75;20100;-78
2021/06/13 10:01:38;;;;;;;4.88;3.50;;;;;;;;;;1906279;75;20124;-77
2021/06/13 10:04:06;;;;;;;;;;;;;;;;;;1900640;75;20143;-79
2021/06/13 10:06:35;;;;;;;5.13;3.63;;;;;;;;;;1906361;75;19964;-78
2021/06/13 10:09:04;;;;;;;7.57;3.72;;;;;;;;;;1905773;75;20092;-78
2021/06/13 10:11:31;;;;;;;5.22;3.50;;;;;;;;;;1906429;75;20561;-77
2021/06/13 10:14:00;;;;;;;6.05;3.60;;;;;;;;;;1905109;75;20522;-77
2021/06/13 10:16:35;;;;;;;5.57;3.47;;;;;;;;;;1905884;67;20123;-77
2021/06/13 10:19:08;;;;;;;5.78;3.60;;;;;;;;;;1907207;60;20092;-77
2021/06/13 10:21:40;;;;;;;6.32;3.47;;;;;;;;;;1907714;75;20088;-80
2021/06/13 10:24:10;;;;;;;7.13;4.03;;;;;;;;;;1911403;75;20490;-79
2021/06/13 10:26:38;;;;;;;6.82;3.50;;;;;;;;;;1911570;75;20092;-81
2021/06/13 10:29:09;;;;;;;6.57;3.47;;;;;;;;;;1908742;75;20089;-83
2021/06/13 10:31:37;;;;;;;6.32;3.75;;;;;;;;;;1910472;75;20119;-81
2021/06/13 10:34:04;;;;;;;5.80;3.30;;;;;;;;;;1910698;75;20580;-79
2021/06/13 10:36:37;;;;;;;4.20;3.10;;;;;;;;;;1910837;75;20092;-81
2021/06/13 10:39:06;;;;;;;7.80;5.07;;;;;;;;;;1908090;75;20097;-78
2021/06/13 10:41:33;;;;;;;7.53;3.45;;;;;;;;;;1905777;75;20096;-80
2021/06/13 10:44:05;;;;;;;5.72;3.35;;;;;;;;;;1906314;75;20089;-79
2021/06/13 10:46:34;;;;;;;5.72;2.90;;;;;;;;;;1906175;75;20116;-78
2021/06/13 10:49:02;;;;;;;5.43;3.33;;;;;;;;;;1906200;75;20099;-78
2021/06/13 10:51:32;;;;;;;5.05;3.05;;;;;;;;;;1905351;75;20147;-77
2021/06/13 10:54:36;;;;;;;5.28;2.80;;;;;;;;;;1907463;75;20099;-78
2021/06/13 10:57:40;;;;;;;4.80;2.72;;;;;;;;;;1908748;75;20088;-78
2021/06/13 11:00:28;;;;;;;4.32;2.72;;;;;;;;;;1908926;75;20096;-78
2021/06/13 11:02:59;;;;;;;5.35;2.85;;;;;;;;;;1902069;75;20141;-78
2021/06/13 11:05:49;;;;;;;4.28;2.78;;;;;;;;;;1903230;75;20100;-78
2021/06/13 11:08:17;;;;;;;5.20;2.90;;;;;;;;;;1899822;75;20164;-77
2021/06/13 11:10:47;;;;;;;4.63;3.05;;;;;;;;;;1902654;75;20132;-79
2021/06/13 11:13:16;;;;;;;7.97;4.93;;;;;;;;;;1902911;75;20093;-77
2021/06/13 11:15:56;;;;;;;7.57;3.80;;;;;;;;;;1902735;75;20165;-76
2021/06/13 11:18:26;;;;;;;5.07;3.53;;;;;;;;;;1894633;75;20086;-76
2021/06/13 11:21:02;;;;;;;6.47;4.43;;;;;;;;;;1906526;75;20451;-78
2021/06/13 11:23:57;;;;;;;5.65;3.03;;;;;;;;;;1906376;75;20092;-77
2021/06/13 11:26:36;;;;;;;6.30;3.67;;;;;;;;;;1906485;75;20091;-76
2021/06/13 11:29:05;;;;;;;5.00;2.70;;;;;;;;;;1896586;75;20085;-77
2021/06/13 11:31:32;;;;;;;5.43;2.63;;;;;;;;;;1911821;75;20089;-77
2021/06/13 11:34:09;;;;;;;6.50;2.90;;;;;;;;;;1914810;75;20088;-77
2021/06/13 11:36:38;;;;;;;5.38;3.20;;;;;;;;;;1914749;75;20095;-78
2021/06/13 11:39:28;;;;;;;5.05;2.97;;;;;;;;;;1908074;75;20500;-75
2021/06/13 11:42:13;;;;;;;4.38;2.70;;;;;;;;;;1907824;75;20097;-77
2021/06/13 11:44:43;;;;;;;6.20;3.70;;;;;;;;;;1907618;75;20405;-77
2021/06/13 11:47:32;;;;;;;6.50;3.20;;;;;;;;;;1907400;75;20143;-78
2021/06/13 11:49:59;;;;;;;5.55;3.13;;;;;;;;;;1906657;75;20080;-77
2021/06/13 11:52:56;;;;;;;5.60;3.03;;;;;;;;;;1907942;75;20092;-77
2021/06/13 11:55:48;;;;;;;4.40;2.80;;;;;;;;;;1906479;75;20092;-77
2021/06/13 11:58:16;;;;;;;4.10;3.00;;;;;;;;;;1907532;75;20076;-78
2021/06/13 12:00:43;;;;;;;4.60;2.60;;;;;;;;;;1906135;75;20089;-77
2021/06/13 12:03:11;;;;;;;5.05;2.80;;;;;;;;;;1905647;75;20093;-77
2021/06/13 12:05:38;;;;;;;5.57;2.60;;;;;;;;;;1906133;75;20089;-77
2021/06/13 12:08:05;;;;;;;3.72;2.42;;;;;;;;;;1907719;75;20111;-77
2021/06/13 12:10:34;;;;;;;3.17;2.13;;;;;;;;;;1908213;75;20167;-77
2021/06/13 12:13:07;;;;;;;4.68;2.25;;;;;;;;;;1906072;75;20085;-77
2021/06/13 12:15:36;;;;;;;5.85;3.72;;;;;;;;;;1906170;75;20089;-77
2021/06/13 12:18:04;;;;;;;5.43;2.80;;;;;;;;;;1905581;75;20123;-77
2021/06/13 12:20:31;;;;;;;6.53;2.95;;;;;;;;;;1906651;67;20403;-78
2021/06/13 12:23:04;;;;;;;4.20;2.50;;;;;;;;;;1905922;75;20143;-77
2021/06/13 12:28:15;;;;;;;4.53;2.25;;;;;;;;;;1905079;75;20095;-77
2021/06/13 12:30:45;;;;;;;4.57;2.30;;;;;;;;;;1905414;75;20088;-78
2021/06/13 12:33:13;;;;;;;3.85;2.17;;;;;;;;;;1905655;75;20157;-76
2021/06/13 12:35:41;;;;;;;7.97;5.35;;;;;;;;;;1905309;75;20143;-77
2021/06/13 12:38:10;;;;;;;4.18;2.70;;;;;;;;;;1905361;75;20519;-78
2021/06/13 12:40:39;;;;;;;3.85;2.30;;;;;;;;;;1905792;75;20097;-77
2021/06/13 12:43:07;;;;;;;8.23;6.50;;;;;;;;;;1900043;75;20085;-77
2021/06/13 12:45:34;;;;;;;4.93;2.03;;;;;;;;;;1905263;75;20139;-77
2021/06/13 12:48:06;;;;;;;5.43;1.95;;;;;;;;;;1905435;75;20120;-77
2021/06/13 12:50:38;;;;;;;5.25;2.60;;;;;;;;;;1905381;75;20125;-79
2021/06/13 12:53:07;;;;;;;4.00;2.20;;;;;;;;;;1905502;75;20093;-78
2021/06/13 12:55:37;;;;;;;4.10;1.58;;;;;;;;;;1905429;75;20466;-78
2021/06/13 12:58:05;;;;;;;2.80;1.50;;;;;;;;;;1904999;75;20089;-78
2021/06/13 13:00:33;;;;;;;3.60;1.70;;;;;;;;;;1905007;75;20085;-77
2021/06/13 13:03:13;;;;;;;1.95;1.33;;;;;;;;;;1905859;75;20100;-79
2021/06/13 13:05:42;;;;;;;7.30;4.15;;;;;;;;;;1905571;75;20119;-78
2021/06/13 13:08:16;;;;;;;4.38;2.33;;;;;;;;;;1907156;75;20084;-78
2021/06/13 13:11:17;;;;;;;3.67;2.10;;;;;;;;;;1906429;67;20148;-80
2021/06/13 13:14:02;;;;;;;6.28;3.75;;;;;;;;;;1901869;75;20086;-80
2021/06/13 13:16:52;;;;;;;3.25;2.03;;;;;;;;;;1902137;75;20093;-79
2021/06/13 13:19:53;;;;;;;4.30;2.33;;;;;;;;;;1901920;75;20133;-82
2021/06/13 13:22:51;;;;;;;2.70;2.00;;;;;;;;;;1898934;75;20093;-80
2021/06/13 13:28:54;;;;;;;3.72;1.50;;;;;;;;;;1885880;75;20094;-80
2021/06/13 13:31:44;;;;;;;4.05;1.73;;;;;;;;;;1897077;75;20097;-80
2021/06/13 13:34:16;;;;;;;3.40;2.00;;;;;;;;;;1897130;75;20121;-80
2021/06/13 13:37:22;;;;;;;6.53;3.03;;;;;;;;;;1899187;75;20086;-80
2021/06/13 13:40:12;;;;;;;2.95;1.77;;;;;;;;;;1903789;62;20112;-82
2021/06/13 13:42:38;;;;;;;5.03;2.30;;;;;;;;;;1904098;75;20097;-80
2021/06/13 13:45:21;;;;;;;2.92;1.83;;;;;;;;;;1904326;75;20116;-79
2021/06/13 13:47:48;;;;;;;3.85;2.10;;;;;;;;;;1905215;75;20145;-81
2021/06/13 13:50:18;;;;;;;3.03;1.90;;;;;;;;;;1904705;75;20093;-79
2021/06/13 13:52:46;;;;;;;;;;;;;;;;;;1906120;75;20296;-82
2021/06/13 13:55:14;;;;;;;3.95;2.20;;;;;;;;;;1905252;75;20015;-81
2021/06/13 14:09:29;;;;;;;3.50;1.90;;;;;;;;;;1894468;76;20563;-83
2021/06/13 14:30:01;;;;;;;3.83;1.67;;;;;;;;;;1867397;77;20167;-80
2021/06/13 16:04:28;;;;;;;;;;;;;;;;;;;;;
2021/06/13 16:07:29;;;;;;;3.83;1.52;;;;;;;;;;1885589;76;20095;-79
2021/06/13 16:10:32;;;;;;;1.98;1.35;;;;;;;;;;1894589;68;20102;-79
2021/06/13 16:18:49;;;;;;;4.95;1.40;;;;;;;;;;1903379;75;20096;-80
2021/06/13 16:21:21;;;;;;;2.35;1.30;;;;;;;;;;1904490;75;20521;-80
2021/06/13 16:23:52;;;;;;;1.88;1.30;;;;;;;;;;1904515;75;20127;-81
2021/06/13 16:26:18;;;;;;;2.13;1.30;;;;;;;;;;1904653;75;20137;-81
2021/06/13 16:29:05;;;;;;;2.28;1.30;;;;;;;;;;1909876;75;20083;-77
2021/06/13 16:31:32;;;;;;;2.33;1.40;;;;;;;;;;1910758;75;20120;-79
2021/06/13 16:34:08;;;;;;;2.17;1.20;;;;;;;;;;1910345;75;20085;-78
2021/06/13 16:36:43;;;;;;;3.00;1.17;;;;;;;;;;1909896;75;20093;-80
2021/06/13 16:39:16;;;;;;;2.45;1.50;;;;;;;;;;1904558;75;20103;-80
2021/06/13 16:41:59;;;;;;;3.00;1.45;;;;;;;;;;1904048;75;20100;-81
2021/06/13 16:44:27;;;;;;;2.50;2.00;;;;;;;;;;1903839;75;20089;-80
2021/06/13 16:46:59;;;;;;;2.47;1.55;;;;;;;;;;1904042;75;20422;-80
2021/06/13 16:49:30;;;;;;;2.40;1.38;;;;;;;;;;1904076;75;20116;-78
2021/06/13 16:52:00;;;;;;;2.63;1.48;;;;;;;;;;1903396;75;20092;-79
2021/06/13 16:54:31;;;;;;;3.00;1.50;;;;;;;;;;1904081;75;20089;-80
2021/06/13 16:56:58;;;;;;;2.75;1.25;;;;;;;;;;1904571;75;20084;-80
2021/06/13 16:59:25;;;;;;;2.97;1.30;;;;;;;;;;1904335;75;20123;-80
2021/06/13 17:01:51;;;;;;;2.25;1.40;;;;;;;;;;1904199;75;20089;-80
2021/06/13 17:04:18;;;;;;;2.17;1.10;;;;;;;;;;1904468;75;20151;-80
2021/06/13 17:06:47;;;;;;;2.83;1.60;;;;;;;;;;1903920;75;20093;-80
2021/06/13 17:09:14;;;;;;;2.33;1.13;;;;;;;;;;1904955;67;20101;-80
2021/06/13 17:11:42;;;;;;;2.92;1.40;;;;;;;;;;1903994;75;20148;-80
2021/06/13 17:14:09;;;;;;;4.15;1.58;;;;;;;;;;1903813;75;20085;-80
2021/06/13 17:16:35;;;;;;;2.17;1.25;;;;;;;;;;1904243;75;20155;-80
2021/06/13 17:19:02;;;;;;;5.35;2.35;;;;;;;;;;1903450;75;20704;-80
2021/06/13 17:21:29;;;;;;;2.45;1.35;;;;;;;;;;1904163;75;20104;-79
2021/06/13 17:23:59;;;;;;;4.10;2.25;;;;;;;;;;1904104;75;20659;-80
2021/06/13 17:26:26;;;;;;;4.65;2.67;;;;;;;;;;1903641;75;20143;-79
2021/06/13 17:28:58;;;;;;;2.17;1.23;;;;;;;;;;1905283;75;20093;-81
2021/06/13 17:31:25;;;;;;;3.50;1.70;;;;;;;;;;1906186;75;20640;-78
2021/06/13 17:33:57;;;;;;;2.90;1.58;;;;;;;;;;1904426;75;20089;-78
2021/06/13 17:36:46;;;;;;;3.05;1.58;;;;;;;;;;1905215;75;20406;-80
2021/06/13 17:39:13;;;;;;;3.30;1.40;;;;;;;;;;1904057;75;20097;-81
2021/06/13 17:41:44;;;;;;;2.35;1.30;;;;;;;;;;1905242;75;20149;-80
2021/06/13 17:44:13;;;;;;;5.38;1.83;;;;;;;;;;1905402;75;20093;-80
2021/06/13 17:46:40;;;;;;;2.92;1.60;;;;;;;;;;1903499;75;20085;-79
2021/06/13 17:49:07;;;;;;;4.55;1.80;;;;;;;;;;1903915;75;20159;-79
2021/06/13 17:51:34;;;;;;;2.47;1.60;;;;;;;;;;1903700;75;20085;-80
2021/06/13 17:54:02;;;;;;;3.55;1.67;;;;;;;;;;1904104;75;20089;-79
2021/06/13 17:56:28;;;;;;;3.13;1.50;;;;;;;;;;1903416;75;20089;-78
2021/06/13 17:58:55;;;;;;;5.07;2.45;;;;;;;;;;1903550;75;20100;-80
2021/06/13 18:01:24;;;;;;;4.43;1.90;;;;;;;;;;1903657;75;20104;-79
2021/06/13 18:03:50;;;;;;;2.75;1.40;;;;;;;;;;1904211;75;20147;-79
2021/06/13 18:06:19;;;;;;;6.10;1.67;;;;;;;;;;1903834;75;20139;-80
2021/06/13 18:08:46;;;;;;;3.00;1.80;;;;;;;;;;1904130;75;20135;-79
2021/06/13 18:11:13;;;;;;;3.30;1.67;;;;;;;;;;1903403;75;20129;-80
2021/06/13 18:13:41;;;;;;;4.60;2.05;;;;;;;;;;1904554;75;20093;-81
2021/06/13 18:16:10;;;;;;;3.33;1.80;;;;;;;;;;1904232;75;20434;-79
2021/06/13 18:18:39;;;;;;;3.13;1.57;;;;;;;;;;1904145;75;20101;-78
2021/06/13 18:21:07;;;;;;;3.97;1.80;;;;;;;;;;1903614;75;20092;-78
2021/06/13 18:23:34;;;;;;;3.60;1.90;;;;;;;;;;1904313;75;20127;-80
2021/06/13 18:26:01;;;;;;;4.95;1.85;;;;;;;;;;1907549;75;20097;-79
2021/06/13 18:28:28;;;;;;;3.25;1.70;;;;;;;;;;1908956;75;20088;-80
2021/06/13 18:30:56;;;;;;;3.65;1.60;;;;;;;;;;1908905;62;20093;-80
2021/06/13 18:33:58;;;;;;;3.00;1.65;;;;;;;;;;1907287;75;20092;-80
2021/06/13 18:36:50;;;;;;;4.78;1.80;;;;;;;;;;1909210;75;20107;-81
2021/06/13 18:46:44;;;;;;;2.85;1.35;;;;;;;;;;1898882;75;20103;-81
2021/06/13 18:49:13;;;;;;;3.50;1.70;;;;;;;;;;1906826;75;20544;-81
2021/06/13 18:51:40;;;;;;;3.40;1.90;;;;;;;;;;1906050;75;20089;-81
2021/06/13 18:54:48;;;;;;;2.78;1.42;;;;;;;;;;1908105;75;20210;-80
2021/06/13 19:03:43;;;;;;;6.82;3.78;;;;;;;;;;1903871;67;20537;-80
2021/06/13 19:06:18;;;;;;;6.63;3.90;;;;;;;;;;1904375;75;20435;-84
2021/06/13 19:08:45;;;;;;;4.95;3.08;;;;;;;;;;1904342;75;20392;-82
2021/06/13 19:13:40;;;;;;;17.75;7.45;;;;;;;;;;1910826;75;20462;-78
2021/06/13 19:16:09;;;;;;;6.82;3.00;;;;;;;;;;1909930;75;20088;-78
2021/06/13 19:18:36;;;;;;;9.75;3.92;;;;;;;;;;1910449;75;20088;-79
2021/06/13 19:21:03;;;;;;;74.20;25.13;;;;;;;;;;1910842;75;20188;-78
2021/06/13 19:23:31;;;;;;;19.60;6.28;;;;;;;;;;1914013;75;20086;-75
2021/06/13 19:26:02;;;;;;;13.82;4.60;;;;;;;;;;1914551;75;20115;-77
2021/06/13 19:28:29;;;;;;;19.42;8.60;;;;;;;;;;1914345;75;20120;-74
2021/06/13 19:30:56;;;;;;;11.25;4.60;;;;;;;;;;1912387;75;20151;-78
2021/06/13 19:33:23;;;;;;;7.50;3.50;;;;;;;;;;1907407;75;20092;-76
2021/06/13 19:35:49;;;;;;;10.93;3.85;;;;;;;;;;1907588;75;20131;-76